createdAt,value
2023-03-07T00:02:24.263Z,29.77
2023-03-07T00:04:52.000Z,31.35
2023-03-07T00:07:19.603Z,32.70
2023-03-07T00:09:48.014Z,30.42
2023-03-07T00:12:16.736Z,30.13
2023-03-07T00:14:44.565Z,28.43
2023-03-07T00:17:12.290Z,31.70
2023-03-07T00:19:42.919Z,28.83
2023-03-07T00:22:11.811Z,29.00
2023-03-07T00:24:40.563Z,29.07
2023-03-07T00:27:08.840Z,28.87
2023-03-07T00:29:36.813Z,28.73
2023-03-07T00:32:04.781Z,29.50
2023-03-07T00:34:32.909Z,27.77
2023-03-07T00:37:02.564Z,29.07
2023-03-07T00:39:30.398Z,28.23
2023-03-07T00:41:58.410Z,30.02
2023-03-07T00:44:36.887Z,26.65
2023-03-07T00:47:05.700Z,29.88
2023-03-07T00:49:33.545Z,28.02
2023-03-07T00:52:03.006Z,31.10
2023-03-07T00:54:30.785Z,32.90
2023-03-07T00:56:58.712Z,29.42
2023-03-07T00:59:27.225Z,28.63
2023-03-07T01:01:55.268Z,27.52
2023-03-07T01:04:23.337Z,31.17
2023-03-07T01:06:51.454Z,30.10
2023-03-07T01:09:21.813Z,30.45
2023-03-07T01:11:50.664Z,32.22
2023-03-07T01:14:19.477Z,30.67
2023-03-07T01:16:47.402Z,29.70
2023-03-07T01:19:15.641Z,29.15
2023-03-07T01:21:44.906Z,31.65
2023-03-07T01:24:15.299Z,30.00
2023-03-07T01:26:45.048Z,30.73
2023-03-07T01:29:13.036Z,36.13
2023-03-07T01:31:40.779Z,29.33
2023-03-07T01:34:08.644Z,29.77
2023-03-07T01:36:38.351Z,28.48
2023-03-07T01:39:15.541Z,27.48
2023-03-07T01:41:49.757Z,29.90
2023-03-07T01:44:22.806Z,29.77
2023-03-07T01:46:53.180Z,27.20
2023-03-07T01:49:26.781Z,27.73
2023-03-07T01:52:05.205Z,31.13
2023-03-07T01:54:38.831Z,27.83
2023-03-07T01:57:08.842Z,26.70
2023-03-07T01:59:41.098Z,27.52
2023-03-07T02:02:12.964Z,24.15
2023-03-07T02:04:45.378Z,25.35
2023-03-07T02:07:14.795Z,25.20
2023-03-07T02:09:44.238Z,25.92
2023-03-07T02:12:15.041Z,26.77
2023-03-07T02:14:45.477Z,22.53
2023-03-07T02:17:13.629Z,20.85
2023-03-07T02:20:07.847Z,20.33
2023-03-07T02:22:36.713Z,21.33
2023-03-07T02:25:10.535Z,23.58
2023-03-07T02:27:40.843Z,22.48
2023-03-07T02:30:10.437Z,22.35
2023-03-07T02:32:38.555Z,18.50
2023-03-07T02:35:17.811Z,18.30
2023-03-07T02:37:53.193Z,19.85
2023-03-07T02:40:27.248Z,20.38
2023-03-07T02:42:59.815Z,18.98
2023-03-07T02:45:29.337Z,20.42
2023-03-07T02:47:57.060Z,18.60
2023-03-07T02:50:25.880Z,17.92
2023-03-07T02:52:54.733Z,19.97
2023-03-07T02:55:23.020Z,17.13
2023-03-07T02:57:59.152Z,19.20
2023-03-07T03:00:28.789Z,16.27
2023-03-07T03:02:56.548Z,16.38
2023-03-07T03:05:27.008Z,19.55
2023-03-07T03:07:56.316Z,18.50
2023-03-07T03:10:25.611Z,18.10
2023-03-07T03:12:53.983Z,20.73
2023-03-07T03:15:23.158Z,18.92
2023-03-07T03:17:54.233Z,20.02
2023-03-07T03:20:22.825Z,18.57
2023-03-07T03:22:52.736Z,20.63
2023-03-07T03:25:23.176Z,19.67
2023-03-07T03:27:51.620Z,20.60
2023-03-07T03:30:19.994Z,19.42
2023-03-07T03:32:49.416Z,18.50
2023-03-07T03:35:19.918Z,20.00
2023-03-07T03:37:49.206Z,24.17
2023-03-07T03:40:17.627Z,22.50
2023-03-07T03:42:46.790Z,21.80
2023-03-07T03:45:17.041Z,20.30
2023-03-07T03:47:44.764Z,22.00
2023-03-07T03:50:14.532Z,20.65
2023-03-07T03:52:45.002Z,21.60
2023-03-07T03:55:13.101Z,22.77
2023-03-07T03:57:40.975Z,21.00
2023-03-07T04:00:10.547Z,23.70
2023-03-07T04:02:41.613Z,23.15
2023-03-07T04:05:15.292Z,21.67
2023-03-07T04:07:43.300Z,23.33
2023-03-07T04:10:12.213Z,21.47
2023-03-07T04:12:40.058Z,22.40
2023-03-07T04:15:09.267Z,22.58
2023-03-07T04:17:38.035Z,22.03
2023-03-07T04:20:09.981Z,23.37
2023-03-07T04:22:39.397Z,22.47
2023-03-07T04:25:08.043Z,21.88
2023-03-07T04:27:36.177Z,23.00
2023-03-07T04:30:05.627Z,24.17
2023-03-07T04:32:34.286Z,22.35
2023-03-07T04:35:02.025Z,21.90
2023-03-07T04:37:29.971Z,22.77
2023-03-07T04:40:01.259Z,23.73
2023-03-07T04:42:29.087Z,26.10
2023-03-07T04:44:56.803Z,20.98
2023-03-07T04:47:27.915Z,24.65
2023-03-07T04:49:55.649Z,24.73
2023-03-07T04:52:23.890Z,24.73
2023-03-07T04:54:54.253Z,23.27
2023-03-07T04:57:24.115Z,23.38
2023-03-07T04:59:52.574Z,21.42
2023-03-07T05:02:23.065Z,23.00
2023-03-07T05:04:51.729Z,21.75
2023-03-07T05:07:19.524Z,24.02
2023-03-07T05:09:47.291Z,21.37
2023-03-07T05:12:15.659Z,22.35
2023-03-07T05:14:44.959Z,21.67
2023-03-07T05:17:12.918Z,23.17
2023-03-07T05:19:42.277Z,23.87
2023-03-07T05:22:10.724Z,25.53
2023-03-07T05:24:38.684Z,23.63
2023-03-07T05:27:06.882Z,22.53
2023-03-07T05:29:34.532Z,22.40
2023-03-07T05:32:04.508Z,20.27
2023-03-07T05:34:32.308Z,22.07
2023-03-07T05:37:00.552Z,21.97
2023-03-07T05:39:29.620Z,22.02
2023-03-07T05:41:57.643Z,23.90
2023-03-07T05:44:26.643Z,22.25
2023-03-07T05:46:56.829Z,23.60
2023-03-07T05:49:27.154Z,23.02
2023-03-07T05:51:55.503Z,20.20
2023-03-07T05:54:23.367Z,20.33
2023-03-07T05:56:51.213Z,20.58
2023-03-07T05:59:19.433Z,22.25
2023-03-07T06:01:49.518Z,18.70
2023-03-07T06:04:17.364Z,17.90
2023-03-07T06:06:47.181Z,22.00
2023-03-07T06:09:14.949Z,18.17
2023-03-07T06:11:42.915Z,20.30
2023-03-07T06:14:11.545Z,18.60
2023-03-07T06:16:39.489Z,18.98
2023-03-07T06:19:07.777Z,18.48
2023-03-07T06:21:35.732Z,21.90
2023-03-07T06:24:07.228Z,19.80
2023-03-07T06:26:35.060Z,20.00
2023-03-07T06:29:03.676Z,19.92
2023-03-07T06:31:31.660Z,22.73
2023-03-07T06:34:00.383Z,16.87
2023-03-07T06:36:28.972Z,18.33
2023-03-07T06:39:00.612Z,18.83
2023-03-07T06:41:30.258Z,17.95
2023-03-07T06:44:00.642Z,18.25
2023-03-07T06:46:31.601Z,19.65
2023-03-07T06:49:01.856Z,19.17
2023-03-07T06:51:30.720Z,22.83
2023-03-07T06:53:58.903Z,20.13
2023-03-07T06:56:29.718Z,24.77
2023-03-07T06:58:59.113Z,20.77
2023-03-07T07:01:27.415Z,19.42
2023-03-07T07:03:57.535Z,20.73
2023-03-07T07:06:27.091Z,19.17
2023-03-07T07:08:56.442Z,18.67
2023-03-07T07:11:28.295Z,18.67
2023-03-07T07:13:57.166Z,19.27
2023-03-07T07:16:27.698Z,16.60
2023-03-07T07:18:55.689Z,19.98
2023-03-07T07:21:23.476Z,20.02
2023-03-07T07:23:51.766Z,19.15
2023-03-07T07:26:19.864Z,19.88
2023-03-07T07:28:47.832Z,16.50
2023-03-07T07:31:15.880Z,19.35
2023-03-07T07:33:46.473Z,16.58
2023-03-07T07:36:16.105Z,16.60
2023-03-07T07:38:43.908Z,17.55
2023-03-07T07:41:13.108Z,16.85
2023-03-07T07:43:41.728Z,21.88
2023-03-07T07:46:21.323Z,18.83
2023-03-07T07:48:50.950Z,15.30
2023-03-07T07:51:19.509Z,14.77
2023-03-07T07:53:47.795Z,15.23
2023-03-07T07:56:15.722Z,14.70
2023-03-07T07:58:44.024Z,17.80
2023-03-07T08:01:17.153Z,16.40
2023-03-07T08:03:44.911Z,15.85
2023-03-07T08:06:20.020Z,15.63
2023-03-07T08:08:48.159Z,18.83
2023-03-07T08:11:18.651Z,18.20
2023-03-07T08:13:46.591Z,17.25
2023-03-07T08:16:17.118Z,14.23
2023-03-07T08:18:49.564Z,14.63
2023-03-07T08:21:19.071Z,14.95
2023-03-07T08:23:47.009Z,14.32
2023-03-07T08:26:15.061Z,17.15
2023-03-07T08:28:43.350Z,15.75
2023-03-07T08:31:12.979Z,13.90
2023-03-07T08:33:41.198Z,15.35
2023-03-07T08:36:09.527Z,12.32
2023-03-07T08:38:38.847Z,12.45
2023-03-07T08:41:08.329Z,12.80
2023-03-07T08:43:39.185Z,12.98
2023-03-07T08:46:07.533Z,13.30
2023-03-07T08:48:36.005Z,14.98
2023-03-07T08:51:08.955Z,18.17
2023-03-07T08:53:38.689Z,11.75
2023-03-07T08:56:10.736Z,13.50
2023-03-07T08:58:38.845Z,12.05
2023-03-07T09:01:10.102Z,13.90
2023-03-07T09:03:38.043Z,12.43
2023-03-07T09:06:06.854Z,11.57
2023-03-07T09:08:35.122Z,11.93
2023-03-07T09:11:05.514Z,10.60
2023-03-07T09:13:43.122Z,10.07
2023-03-07T09:16:17.786Z,13.38
2023-03-07T09:18:45.642Z,14.80
2023-03-07T09:21:13.960Z,11.25
2023-03-07T09:23:43.630Z,11.18
2023-03-07T09:26:13.108Z,10.48
2023-03-07T09:28:41.448Z,11.45
2023-03-07T09:31:10.143Z,16.25
2023-03-07T09:33:38.545Z,12.93
2023-03-07T09:36:07.142Z,10.82
2023-03-07T09:38:35.940Z,14.95
2023-03-07T09:41:16.501Z,15.60
2023-03-07T09:43:52.177Z,9.55
2023-03-07T09:46:50.174Z,11.05
2023-03-07T09:49:20.739Z,11.05
2023-03-07T09:51:53.015Z,9.77
2023-03-07T09:54:23.564Z,12.90
2023-03-07T09:56:55.526Z,12.50
2023-03-07T09:59:33.449Z,12.32
2023-03-07T10:02:06.996Z,14.27
2023-03-07T10:04:43.415Z,14.02
2023-03-07T10:07:14.757Z,14.48
2023-03-07T10:09:43.080Z,11.70
2023-03-07T10:12:28.103Z,12.10
2023-03-07T10:15:10.369Z,10.00
2023-03-07T10:17:51.496Z,12.80
2023-03-07T10:20:24.391Z,12.40
2023-03-07T10:23:00.372Z,11.43
2023-03-07T10:25:32.191Z,9.13
2023-03-07T10:28:13.027Z,10.02
2023-03-07T10:30:42.559Z,11.95
2023-03-07T10:33:18.672Z,9.35
2023-03-07T10:35:52.953Z,11.23
2023-03-07T10:38:29.916Z,13.82
2023-03-07T10:41:01.053Z,11.07
2023-03-07T10:43:33.104Z,8.68
2023-03-07T10:46:23.612Z,8.63
2023-03-07T10:48:54.569Z,9.52
2023-03-07T10:51:37.789Z,7.90
2023-03-07T10:54:12.456Z,11.10
2023-03-07T10:56:40.365Z,9.57
2023-03-07T10:59:10.475Z,12.40
2023-03-07T11:01:53.193Z,11.43
2023-03-07T11:04:23.498Z,9.45
2023-03-07T11:06:55.246Z,9.60
2023-03-07T11:09:28.298Z,10.40
2023-03-07T11:11:58.966Z,11.93
2023-03-07T11:14:28.547Z,9.63
2023-03-07T11:16:59.853Z,10.95
2023-03-07T11:19:39.926Z,13.15
2023-03-07T11:22:19.567Z,10.27
2023-03-07T11:25:00.733Z,12.55
2023-03-07T11:27:35.705Z,14.73
2023-03-07T11:30:08.462Z,11.23
2023-03-07T11:32:43.722Z,11.32
2023-03-07T11:35:20.057Z,12.50
2023-03-07T11:37:59.139Z,12.70
2023-03-07T11:40:31.654Z,10.60
2023-03-07T11:43:21.718Z,11.13
2023-03-07T11:45:56.774Z,10.48
2023-03-07T11:48:41.631Z,11.45
2023-03-07T11:51:25.779Z,12.85
2023-03-07T11:54:04.737Z,11.73
2023-03-07T11:56:36.982Z,12.45
2023-03-07T11:59:34.437Z,11.88
2023-03-07T12:02:06.255Z,11.65
2023-03-07T12:04:58.778Z,10.63
2023-03-07T12:07:47.471Z,11.98
2023-03-07T12:10:31.505Z,11.95
2023-03-07T12:13:12.864Z,15.13
2023-03-07T12:15:47.381Z,12.18
2023-03-07T12:18:37.865Z,11.70
2023-03-07T12:21:24.742Z,12.93
2023-03-07T12:23:55.715Z,14.65
2023-03-07T12:26:28.017Z,12.00
2023-03-07T12:29:03.877Z,11.15
2023-03-07T12:31:35.642Z,11.77
2023-03-07T12:34:08.240Z,12.48
2023-03-07T12:36:43.253Z,10.45
2023-03-07T12:39:21.029Z,13.57
2023-03-07T12:41:58.849Z,11.90
2023-03-07T12:44:34.119Z,13.48
2023-03-07T12:47:07.829Z,17.08
2023-03-07T12:49:49.686Z,12.45
2023-03-07T12:52:30.089Z,12.80
2023-03-07T12:55:02.797Z,11.82
2023-03-07T12:57:35.958Z,13.38
2023-03-07T13:00:09.095Z,13.38
2023-03-07T13:02:42.879Z,12.98
2023-03-07T13:05:21.598Z,14.13
2023-03-07T13:07:55.028Z,12.13
2023-03-07T13:10:27.164Z,12.63
2023-03-07T13:12:56.578Z,13.95
2023-03-07T13:16:02.854Z,13.65
2023-03-07T13:18:33.246Z,12.85
2023-03-07T13:21:32.712Z,11.65
2023-03-07T13:24:33.250Z,11.27
2023-03-07T13:27:02.315Z,11.57
2023-03-07T13:30:07.004Z,15.25
2023-03-07T13:32:58.249Z,12.30
2023-03-07T13:35:56.803Z,12.02
2023-03-07T13:38:36.593Z,11.30
2023-03-07T13:41:11.411Z,12.65
2023-03-07T13:44:00.294Z,16.90
2023-03-07T13:46:48.054Z,11.88
2023-03-07T13:49:39.620Z,12.07
2023-03-07T13:52:41.000Z,13.55
2023-03-07T13:55:25.960Z,15.13
2023-03-07T13:57:58.527Z,16.40
2023-03-07T14:00:34.514Z,12.43
2023-03-07T14:03:02.984Z,13.77
2023-03-07T14:05:34.531Z,14.30
2023-03-07T14:08:04.457Z,12.40
2023-03-07T14:10:33.141Z,12.77
2023-03-07T14:13:34.798Z,14.73
2023-03-07T14:16:18.992Z,15.75
2023-03-07T14:18:58.528Z,13.23
2023-03-07T14:21:43.942Z,17.50
2023-03-07T14:24:29.654Z,18.90
2023-03-07T14:26:59.676Z,13.05
2023-03-07T14:29:33.794Z,15.70
2023-03-07T14:32:02.760Z,14.85
2023-03-07T14:34:34.032Z,13.07
2023-03-07T14:37:06.297Z,10.38
2023-03-07T14:39:45.487Z,11.68
2023-03-07T14:42:22.667Z,14.57
2023-03-07T14:45:10.967Z,12.30
2023-03-07T14:48:04.747Z,14.23
2023-03-07T14:50:39.967Z,9.43
2023-03-07T14:53:16.376Z,12.10
2023-03-07T14:55:48.811Z,10.15
2023-03-07T14:58:20.875Z,9.63
2023-03-07T15:00:59.913Z,10.15
2023-03-07T15:03:33.202Z,13.15
2023-03-07T15:06:03.893Z,11.10
2023-03-07T15:08:35.368Z,11.27
2023-03-07T15:11:09.352Z,12.07
2023-03-07T15:13:45.640Z,12.45
2023-03-07T15:16:20.792Z,12.18
2023-03-07T15:18:53.460Z,11.80
2023-03-07T15:21:28.195Z,10.35
2023-03-07T15:23:59.385Z,11.07
2023-03-07T15:26:31.809Z,14.35
2023-03-07T15:29:01.776Z,11.40
2023-03-07T15:31:50.940Z,13.70
2023-03-07T15:34:27.891Z,10.70
2023-03-07T15:36:56.502Z,11.18
2023-03-07T15:39:33.357Z,11.73
2023-03-07T15:42:05.292Z,12.80
2023-03-07T15:44:36.674Z,14.35
2023-03-07T15:47:16.021Z,13.60
2023-03-07T15:49:47.937Z,13.60
2023-03-07T15:52:33.791Z,15.15
2023-03-07T15:55:05.748Z,14.77
2023-03-07T15:57:38.534Z,14.70
2023-03-07T16:00:09.970Z,13.05
2023-03-07T16:02:47.242Z,13.80
2023-03-07T16:05:42.020Z,14.18
2023-03-07T16:08:15.454Z,11.90
2023-03-07T16:10:54.580Z,13.00
2023-03-07T16:13:27.515Z,16.30
2023-03-07T16:16:07.346Z,12.30
2023-03-07T16:18:37.919Z,12.65
2023-03-07T16:21:07.833Z,12.85
2023-03-07T16:23:38.884Z,11.93
2023-03-07T16:26:09.257Z,15.93
2023-03-07T16:28:43.251Z,13.25
2023-03-07T16:31:14.463Z,13.63
2023-03-07T16:33:45.203Z,11.85
2023-03-07T16:36:14.623Z,14.25
2023-03-07T16:38:44.308Z,13.23
2023-03-07T16:41:18.464Z,12.85
2023-03-07T16:43:49.034Z,13.38
2023-03-07T16:46:19.775Z,13.68
2023-03-07T16:48:49.787Z,13.38
2023-03-07T16:51:21.630Z,13.43
2023-03-07T16:53:52.695Z,35.95
2023-03-07T16:56:28.466Z,15.70
2023-03-07T16:58:59.499Z,19.25
2023-03-07T17:01:30.481Z,14.68
2023-03-07T17:04:01.416Z,13.18
2023-03-07T17:06:39.113Z,11.82
2023-03-07T17:09:11.248Z,16.13
2023-03-07T17:11:43.085Z,12.45
2023-03-07T17:14:13.821Z,16.60
2023-03-07T17:16:45.284Z,11.60
2023-03-07T17:19:26.330Z,13.85
2023-03-07T17:21:55.793Z,11.27
2023-03-07T17:24:24.930Z,13.20
2023-03-07T17:26:57.295Z,11.55
2023-03-07T17:29:31.040Z,13.80
2023-03-07T17:31:59.405Z,13.35
2023-03-07T17:34:30.515Z,12.50
2023-03-07T17:37:00.132Z,13.43
2023-03-07T17:39:29.622Z,11.07
2023-03-07T17:41:57.707Z,13.18
2023-03-07T17:44:26.093Z,10.93
2023-03-07T17:46:54.447Z,15.77
2023-03-07T17:49:22.920Z,10.77
2023-03-07T17:51:52.861Z,11.15
2023-03-07T17:54:21.327Z,12.20
2023-03-07T17:56:49.003Z,11.93
2023-03-07T17:59:16.958Z,10.35
2023-03-07T18:01:44.680Z,11.70
2023-03-07T18:04:12.505Z,10.57
2023-03-07T18:06:41.126Z,12.13
2023-03-07T18:09:10.174Z,12.00
2023-03-07T18:11:37.874Z,9.23
2023-03-07T18:14:05.555Z,9.77
2023-03-07T18:16:33.293Z,11.98
2023-03-07T18:19:04.102Z,11.57
2023-03-07T18:21:32.957Z,11.68
2023-03-07T18:24:00.794Z,12.23
2023-03-07T18:26:30.776Z,9.25
2023-03-07T18:28:59.288Z,9.60
2023-03-07T18:31:31.788Z,9.55
2023-03-07T18:34:01.384Z,11.18
2023-03-07T18:36:33.111Z,11.38
2023-03-07T18:39:02.917Z,15.70
2023-03-07T18:41:35.434Z,11.82
2023-03-07T18:44:04.692Z,11.75
2023-03-07T18:46:34.596Z,11.43
2023-03-07T18:49:02.585Z,10.90
2023-03-07T18:51:33.136Z,11.98
2023-03-07T18:54:02.821Z,12.98
2023-03-07T18:56:35.748Z,12.63
2023-03-07T18:59:07.065Z,12.10
2023-03-07T19:01:37.697Z,14.88
2023-03-07T19:04:08.518Z,11.80
2023-03-07T19:06:39.753Z,11.18
2023-03-07T19:09:08.267Z,13.50
2023-03-07T19:11:39.125Z,14.32
2023-03-07T19:14:08.386Z,11.77
2023-03-07T19:16:37.789Z,13.27
2023-03-07T19:19:06.822Z,12.32
2023-03-07T19:21:37.617Z,12.82
2023-03-07T19:24:08.582Z,13.30
2023-03-07T19:26:40.437Z,13.00
2023-03-07T19:29:14.045Z,12.77
2023-03-07T19:31:45.728Z,12.07
2023-03-07T19:34:17.478Z,12.35
2023-03-07T19:36:51.150Z,12.20
2023-03-07T19:39:21.835Z,12.43
2023-03-07T19:41:53.710Z,10.75
2023-03-07T19:44:23.467Z,16.48
2023-03-07T19:46:53.198Z,14.20
2023-03-07T19:49:23.823Z,12.77
2023-03-07T19:51:56.511Z,11.77
2023-03-07T19:54:28.878Z,13.00
2023-03-07T19:57:01.962Z,11.43
2023-03-07T19:59:34.762Z,12.15
2023-03-07T20:02:05.978Z,15.57
2023-03-07T20:04:35.999Z,12.85
2023-03-07T20:07:06.723Z,15.65
2023-03-07T20:09:37.390Z,13.82
2023-03-07T20:12:10.560Z,14.02
2023-03-07T20:14:43.304Z,17.40
2023-03-07T20:17:14.042Z,13.30
2023-03-07T20:19:44.141Z,14.40
2023-03-07T20:22:13.830Z,15.60
2023-03-07T20:24:42.793Z,13.05
2023-03-07T20:27:13.934Z,13.90
2023-03-07T20:29:42.688Z,14.30
2023-03-07T20:32:11.814Z,14.00
2023-03-07T20:34:40.564Z,15.07
2023-03-07T20:37:10.553Z,14.00
2023-03-07T20:39:41.309Z,12.02
2023-03-07T20:42:15.774Z,21.77
2023-03-07T20:44:46.305Z,11.82
2023-03-07T20:47:14.957Z,11.63
2023-03-07T20:49:43.566Z,12.80
2023-03-07T20:52:12.811Z,14.55
2023-03-07T20:54:42.237Z,12.68
2023-03-07T20:57:11.957Z,13.93
2023-03-07T20:59:43.045Z,17.80
2023-03-07T21:02:12.226Z,13.30
2023-03-07T21:04:41.178Z,15.05
2023-03-07T21:07:10.198Z,16.65
2023-03-07T21:09:38.430Z,12.95
2023-03-07T21:12:08.705Z,11.27
2023-03-07T21:14:37.722Z,15.57
2023-03-07T21:17:07.382Z,16.35
2023-03-07T21:19:35.278Z,11.57
2023-03-07T21:22:03.469Z,14.95
2023-03-07T21:24:31.324Z,13.70
2023-03-07T21:26:59.402Z,12.15
2023-03-07T21:29:29.098Z,15.75
2023-03-07T21:31:59.764Z,14.05
2023-03-07T21:34:30.969Z,14.32
2023-03-07T21:37:00.294Z,13.00
2023-03-07T21:39:30.003Z,12.52
2023-03-07T21:42:00.300Z,12.75
2023-03-07T21:44:30.157Z,13.75
2023-03-07T21:46:58.682Z,12.60
2023-03-07T21:49:26.542Z,12.52
2023-03-07T21:51:56.254Z,14.68
2023-03-07T21:54:24.046Z,13.32
2023-03-07T21:56:51.770Z,14.75
2023-03-07T21:59:19.577Z,14.38
2023-03-07T22:01:47.253Z,14.88
2023-03-07T22:04:16.190Z,14.32
2023-03-07T22:06:44.056Z,13.07
2023-03-07T22:09:13.363Z,15.40
2023-03-07T22:11:41.096Z,11.68
2023-03-07T22:14:08.723Z,13.20
2023-03-07T22:16:36.441Z,13.27
2023-03-07T22:19:04.552Z,15.25
2023-03-07T22:21:32.558Z,13.30
2023-03-07T22:24:01.487Z,12.32
2023-03-07T22:26:32.461Z,13.00
2023-03-07T22:29:00.796Z,13.38
2023-03-07T22:31:29.191Z,12.50
2023-03-07T22:33:58.830Z,13.57
2023-03-07T22:36:27.121Z,13.38
2023-03-07T22:38:56.407Z,14.38
2023-03-07T22:41:25.572Z,12.32
2023-03-07T22:43:54.981Z,14.32
2023-03-07T22:46:22.791Z,13.68
2023-03-07T22:48:53.751Z,14.65
2023-03-07T22:51:22.688Z,12.95
2023-03-07T22:53:50.687Z,15.15
2023-03-07T22:56:20.890Z,16.38
2023-03-07T22:58:48.780Z,14.15
2023-03-07T23:01:20.164Z,14.38
2023-03-07T23:03:48.220Z,12.40
2023-03-07T23:06:16.302Z,14.45
2023-03-07T23:08:45.656Z,14.68
2023-03-07T23:11:14.378Z,13.27
2023-03-07T23:13:42.326Z,12.98
2023-03-07T23:16:12.562Z,26.58
2023-03-07T23:18:42.396Z,16.17
2023-03-07T23:21:12.217Z,10.90
2023-03-07T23:23:39.963Z,16.10
2023-03-07T23:26:08.794Z,12.45
2023-03-07T23:28:36.557Z,14.25
2023-03-07T23:31:05.510Z,13.90
2023-03-07T23:33:33.347Z,10.93
2023-03-07T23:36:02.465Z,12.40
2023-03-07T23:38:31.796Z,14.38
2023-03-07T23:40:59.573Z,13.43
2023-03-07T23:43:27.223Z,13.38
2023-03-07T23:45:55.042Z,12.10
2023-03-07T23:48:22.775Z,11.57
2023-03-07T23:50:50.569Z,14.80
2023-03-07T23:53:19.585Z,13.30
2023-03-07T23:55:47.326Z,11.90
2023-03-07T23:58:15.259Z,12.25
